sensor_id;sensor_type;location;lat;lon;timestamp;pressure;altitude;pressure_sealevel;temperature;humidity
59104;BME280;51449;51.676;5.812;2023-12-28T00:01:56;100801.63;;;10.88;69.30
59104;BME280;51449;51.676;5.812;2023-12-28T00:04:18;100798.19;;;10.91;69.44
59104;BME280;51449;51.676;5.812;2023-12-28T00:06:40;100800.94;;;10.91;69.78
59104;BME280;51449;51.676;5.812;2023-12-28T00:09:02;100811.84;;;10.88;69.86
59104;BME280;51449;51.676;5.812;2023-12-28T00:11:32;100811.50;;;10.89;70.19
59104;BME280;51449;51.676;5.812;2023-12-28T00:13:54;100803.59;;;10.88;70.61
59104;BME280;51449;51.676;5.812;2023-12-28T00:16:16;100812.97;;;10.87;71.01
59104;BME280;51449;51.676;5.812;2023-12-28T00:18:37;100815.75;;;10.87;71.21
59104;BME280;51449;51.676;5.812;2023-12-28T00:21:00;100816.91;;;10.86;71.44
59104;BME280;51449;51.676;5.812;2023-12-28T00:23:22;100819.28;;;10.87;71.57
59104;BME280;51449;51.676;5.812;2023-12-28T00:25:44;100816.53;;;10.87;71.29
59104;BME280;51449;51.676;5.812;2023-12-28T00:28:05;100810.22;;;10.87;72.14
59104;BME280;51449;51.676;5.812;2023-12-28T00:30:27;100814.81;;;10.83;72.67
59104;BME280;51449;51.676;5.812;2023-12-28T00:32:49;100822.72;;;10.84;72.74
59104;BME280;51449;51.676;5.812;2023-12-28T00:35:11;100825.97;;;10.86;73.00
59104;BME280;51449;51.676;5.812;2023-12-28T00:37:33;100831.94;;;10.88;72.96
59104;BME280;51449;51.676;5.812;2023-12-28T00:39:55;100833.91;;;10.88;72.84
59104;BME280;51449;51.676;5.812;2023-12-28T00:42:17;100835.03;;;10.87;73.33
59104;BME280;51449;51.676;5.812;2023-12-28T00:44:41;100831.16;;;10.88;73.30
59104;BME280;51449;51.676;5.812;2023-12-28T00:47:03;100834.56;;;10.85;73.44
59104;BME280;51449;51.676;5.812;2023-12-28T00:49:27;100843.97;;;10.84;73.79
59104;BME280;51449;51.676;5.812;2023-12-28T00:51:49;100850.16;;;10.81;73.77
59104;BME280;51449;51.676;5.812;2023-12-28T00:54:11;100841.09;;;10.80;74.14
59104;BME280;51449;51.676;5.812;2023-12-28T00:56:33;100843.03;;;10.80;74.07
59104;BME280;51449;51.676;5.812;2023-12-28T00:58:55;100866.69;;;10.81;73.91
59104;BME280;51449;51.676;5.812;2023-12-28T01:01:17;100854.06;;;10.80;74.04
59104;BME280;51449;51.676;5.812;2023-12-28T01:03:39;100854.06;;;10.80;74.68
59104;BME280;51449;51.676;5.812;2023-12-28T01:06:02;100857.16;;;10.78;75.21
59104;BME280;51449;51.676;5.812;2023-12-28T01:08:23;100854.72;;;10.77;75.18
59104;BME280;51449;51.676;5.812;2023-12-28T01:10:48;100845.97;;;10.75;75.58
59104;BME280;51449;51.676;5.812;2023-12-28T01:13:10;100854.59;;;10.73;75.46
59104;BME280;51449;51.676;5.812;2023-12-28T01:15:32;100857.81;;;10.75;75.86
59104;BME280;51449;51.676;5.812;2023-12-28T01:17:54;100863.47;;;10.79;75.43
59104;BME280;51449;51.676;5.812;2023-12-28T01:20:16;100852.44;;;10.79;76.04
59104;BME280;51449;51.676;5.812;2023-12-28T01:22:38;100862.66;;;10.78;75.92
59104;BME280;51449;51.676;5.812;2023-12-28T01:24:59;100860.41;;;10.80;75.84
59104;BME280;51449;51.676;5.812;2023-12-28T01:27:21;100862.78;;;10.82;76.17
59104;BME280;51449;51.676;5.812;2023-12-28T01:29:43;100863.59;;;10.82;76.32
59104;BME280;51449;51.676;5.812;2023-12-28T01:32:05;100870.25;;;10.81;76.85
59104;BME280;51449;51.676;5.812;2023-12-28T01:34:27;100873.97;;;10.85;76.30
59104;BME280;51449;51.676;5.812;2023-12-28T01:36:50;100867.91;;;10.92;76.64
59104;BME280;51449;51.676;5.812;2023-12-28T01:39:12;100891.41;;;10.98;76.33
59104;BME280;51449;51.676;5.812;2023-12-28T01:41:34;100885.19;;;11.01;76.58
59104;BME280;51449;51.676;5.812;2023-12-28T01:43:56;100888.44;;;11.03;76.45
59104;BME280;51449;51.676;5.812;2023-12-28T01:46:19;100892.78;;;11.04;76.51
59104;BME280;51449;51.676;5.812;2023-12-28T01:48:45;100892.16;;;11.07;76.76
59104;BME280;51449;51.676;5.812;2023-12-28T01:51:11;100883.19;;;11.10;76.42
59104;BME280;51449;51.676;5.812;2023-12-28T01:53:36;100889.19;;;11.12;76.25
59104;BME280;51449;51.676;5.812;2023-12-28T01:55:58;100892.88;;;11.17;76.30
59104;BME280;51449;51.676;5.812;2023-12-28T01:58:22;100891.59;;;11.14;76.26
59104;BME280;51449;51.676;5.812;2023-12-28T02:00:44;100894.34;;;11.14;76.41
59104;BME280;51449;51.676;5.812;2023-12-28T02:03:08;100897.94;;;11.14;76.06
59104;BME280;51449;51.676;5.812;2023-12-28T02:05:30;100896.31;;;11.13;76.56
59104;BME280;51449;51.676;5.812;2023-12-28T02:07:52;100895.03;;;11.11;76.10
59104;BME280;51449;51.676;5.812;2023-12-28T02:10:15;100898.59;;;11.11;76.04
59104;BME280;51449;51.676;5.812;2023-12-28T02:12:37;100891.47;;;11.10;76.16
59104;BME280;51449;51.676;5.812;2023-12-28T02:15:00;100893.63;;;11.05;76.33
59104;BME280;51449;51.676;5.812;2023-12-28T02:17:27;100889.38;;;11.07;76.31
59104;BME280;51449;51.676;5.812;2023-12-28T02:19:56;100895.81;;;11.11;76.25
59104;BME280;51449;51.676;5.812;2023-12-28T02:22:21;100901.34;;;11.11;76.34
59104;BME280;51449;51.676;5.812;2023-12-28T02:27:28;100907.81;;;11.16;76.16
59104;BME280;51449;51.676;5.812;2023-12-28T02:29:50;100900.22;;;11.12;76.32
59104;BME280;51449;51.676;5.812;2023-12-28T02:32:12;100898.59;;;11.11;76.20
59104;BME280;51449;51.676;5.812;2023-12-28T02:34:41;100899.41;;;11.12;76.24
59104;BME280;51449;51.676;5.812;2023-12-28T02:37:06;100897.66;;;11.07;76.45
59104;BME280;51449;51.676;5.812;2023-12-28T02:39:29;100899.59;;;11.07;76.83
59104;BME280;51449;51.676;5.812;2023-12-28T02:41:52;100891.66;;;11.05;76.79
59104;BME280;51449;51.676;5.812;2023-12-28T02:44:16;100882.13;;;11.03;76.71
59104;BME280;51449;51.676;5.812;2023-12-28T02:46:40;100881.84;;;10.96;76.97
59104;BME280;51449;51.676;5.812;2023-12-28T02:49:02;100893.19;;;10.94;77.37
59104;BME280;51449;51.676;5.812;2023-12-28T02:51:27;100886.06;;;10.93;77.23
59104;BME280;51449;51.676;5.812;2023-12-28T02:53:48;100877.13;;;10.96;76.94
59104;BME280;51449;51.676;5.812;2023-12-28T02:56:10;100881.50;;;10.97;76.80
59104;BME280;51449;51.676;5.812;2023-12-28T02:58:35;100872.78;;;10.95;76.73
59104;BME280;51449;51.676;5.812;2023-12-28T03:00:58;100877.47;;;10.95;76.82
59104;BME280;51449;51.676;5.812;2023-12-28T03:03:20;100867.59;;;10.93;77.25
59104;BME280;51449;51.676;5.812;2023-12-28T03:05:42;100871.03;;;10.90;77.39
59104;BME280;51449;51.676;5.812;2023-12-28T03:08:04;100881.69;;;10.92;77.24
59104;BME280;51449;51.676;5.812;2023-12-28T03:10:26;100879.41;;;10.94;77.20
59104;BME280;51449;51.676;5.812;2023-12-28T03:12:48;100877.81;;;10.93;77.76
59104;BME280;51449;51.676;5.812;2023-12-28T03:15:11;100887.84;;;10.98;77.15
59104;BME280;51449;51.676;5.812;2023-12-28T03:17:34;100872.41;;;10.97;77.21
59104;BME280;51449;51.676;5.812;2023-12-28T03:19:59;100875.66;;;10.99;76.80
59104;BME280;51449;51.676;5.812;2023-12-28T03:22:22;100866.09;;;10.96;77.22
59104;BME280;51449;51.676;5.812;2023-12-28T03:24:46;100873.56;;;10.96;76.91
59104;BME280;51449;51.676;5.812;2023-12-28T03:27:09;100867.59;;;10.93;77.02
59104;BME280;51449;51.676;5.812;2023-12-28T03:29:31;100860.78;;;10.91;77.25
59104;BME280;51449;51.676;5.812;2023-12-28T03:31:53;100871.81;;;10.91;76.96
59104;BME280;51449;51.676;5.812;2023-12-28T03:34:16;100857.56;;;10.89;77.00
59104;BME280;51449;51.676;5.812;2023-12-28T03:36:39;100864.69;;;10.90;77.12
59104;BME280;51449;51.676;5.812;2023-12-28T03:39:01;100881.25;;;10.90;77.09
59104;BME280;51449;51.676;5.812;2023-12-28T03:41:22;100884.44;;;10.92;77.13
59104;BME280;51449;51.676;5.812;2023-12-28T03:43:45;100891.91;;;10.91;77.09
59104;BME280;51449;51.676;5.812;2023-12-28T03:46:08;100889.63;;;10.93;77.20
59104;BME280;51449;51.676;5.812;2023-12-28T03:48:29;100894.16;;;10.98;77.12
59104;BME280;51449;51.676;5.812;2023-12-28T03:50:51;100887.16;;;11.01;77.08
59104;BME280;51449;51.676;5.812;2023-12-28T03:53:14;100876.59;;;11.03;76.49
59104;BME280;51449;51.676;5.812;2023-12-28T03:55:36;100871.88;;;11.03;76.74
59104;BME280;51449;51.676;5.812;2023-12-28T03:57:58;100873.84;;;11.03;76.29
59104;BME280;51449;51.676;5.812;2023-12-28T04:00:21;100867.53;;;11.02;76.15
59104;BME280;51449;51.676;5.812;2023-12-28T04:02:45;100862.03;;;11.02;76.06
59104;BME280;51449;51.676;5.812;2023-12-28T04:05:10;100865.56;;;11.03;75.93
59104;BME280;51449;51.676;5.812;2023-12-28T04:07:31;100853.94;;;10.97;75.95
59104;BME280;51449;51.676;5.812;2023-12-28T04:09:53;100871.28;;;10.98;76.33
59104;BME280;51449;51.676;5.812;2023-12-28T04:12:16;100871.63;;;10.96;76.21
59104;BME280;51449;51.676;5.812;2023-12-28T04:14:38;100882.66;;;10.96;75.97
59104;BME280;51449;51.676;5.812;2023-12-28T04:16:59;100884.59;;;10.96;75.83
59104;BME280;51449;51.676;5.812;2023-12-28T04:19:21;100878.28;;;10.95;75.92
59104;BME280;51449;51.676;5.812;2023-12-28T04:21:44;100880.56;;;10.93;75.83
59104;BME280;51449;51.676;5.812;2023-12-28T04:24:06;100874.56;;;10.91;75.67
59104;BME280;51449;51.676;5.812;2023-12-28T04:26:28;100871.81;;;10.91;75.80
59104;BME280;51449;51.676;5.812;2023-12-28T04:28:52;100863.06;;;10.89;75.32
59104;BME280;51449;51.676;5.812;2023-12-28T04:31:14;100866.97;;;10.88;75.69
59104;BME280;51449;51.676;5.812;2023-12-28T04:33:38;100864.22;;;10.88;75.36
59104;BME280;51449;51.676;5.812;2023-12-28T04:36:01;100863.22;;;10.92;74.76
59104;BME280;51449;51.676;5.812;2023-12-28T04:38:28;100881.16;;;10.99;74.32
59104;BME280;51449;51.676;5.812;2023-12-28T04:40:50;100871.56;;;11.05;74.37
59104;BME280;51449;51.676;5.812;2023-12-28T04:43:12;100867.19;;;11.04;73.72
59104;BME280;51449;51.676;5.812;2023-12-28T04:45:34;100868.81;;;11.05;73.86
59104;BME280;51449;51.676;5.812;2023-12-28T04:47:56;100853.88;;;11.06;73.66
59104;BME280;51449;51.676;5.812;2023-12-28T04:50:18;100866.06;;;11.05;73.81
59104;BME280;51449;51.676;5.812;2023-12-28T04:52:40;100864.41;;;11.04;73.52
59104;BME280;51449;51.676;5.812;2023-12-28T04:55:03;100865.09;;;11.01;74.02
59104;BME280;51449;51.676;5.812;2023-12-28T04:57:25;100876.94;;;11.01;73.92
59104;BME280;51449;51.676;5.812;2023-12-28T04:59:49;100886.69;;;10.99;74.28
59104;BME280;51449;51.676;5.812;2023-12-28T05:02:12;100877.41;;;11.03;73.88
59104;BME280;51449;51.676;5.812;2023-12-28T05:04:36;100888.91;;;11.05;73.64
59104;BME280;51449;51.676;5.812;2023-12-28T05:07:02;100894.91;;;11.07;73.64
59104;BME280;51449;51.676;5.812;2023-12-28T05:09:24;100888.72;;;11.10;73.24
59104;BME280;51449;51.676;5.812;2023-12-28T05:11:46;100897.09;;;11.14;73.11
59104;BME280;51449;51.676;5.812;2023-12-28T05:14:08;100886.06;;;11.14;72.80
59104;BME280;51449;51.676;5.812;2023-12-28T05:16:31;100881.38;;;11.14;72.36
59104;BME280;51449;51.676;5.812;2023-12-28T05:18:53;100890.25;;;11.20;72.33
59104;BME280;51449;51.676;5.812;2023-12-28T05:21:15;100903.38;;;11.23;72.40
59104;BME280;51449;51.676;5.812;2023-12-28T05:23:37;100907.19;;;11.31;71.82
59104;BME280;51449;51.676;5.812;2023-12-28T05:25:59;100906.88;;;11.32;71.53
59104;BME280;51449;51.676;5.812;2023-12-28T05:28:21;100914.25;;;11.41;71.31
59104;BME280;51449;51.676;5.812;2023-12-28T05:30:43;100908.88;;;11.44;71.15
59104;BME280;51449;51.676;5.812;2023-12-28T05:33:04;100902.22;;;11.45;70.96
59104;BME280;51449;51.676;5.812;2023-12-28T05:35:26;100895.22;;;11.48;70.58
59104;BME280;51449;51.676;5.812;2023-12-28T05:37:48;100903.84;;;11.46;69.90
59104;BME280;51449;51.676;5.812;2023-12-28T05:40:10;100897.97;;;11.48;69.83
59104;BME280;51449;51.676;5.812;2023-12-28T05:42:32;100905.44;;;11.47;69.41
59104;BME280;51449;51.676;5.812;2023-12-28T05:44:54;100897.97;;;11.48;69.50
59104;BME280;51449;51.676;5.812;2023-12-28T05:47:16;100888.91;;;11.47;69.13
59104;BME280;51449;51.676;5.812;2023-12-28T05:49:38;100899.94;;;11.47;68.87
59104;BME280;51449;51.676;5.812;2023-12-28T05:51:59;100897.38;;;11.42;68.88
59104;BME280;51449;51.676;5.812;2023-12-28T05:54:21;100915.09;;;11.41;69.10
59104;BME280;51449;51.676;5.812;2023-12-28T05:56:43;100899.53;;;11.37;69.15
59104;BME280;51449;51.676;5.812;2023-12-28T05:59:05;100897.44;;;11.33;69.28
59104;BME280;51449;51.676;5.812;2023-12-28T06:01:27;100919.97;;;11.35;69.22
59104;BME280;51449;51.676;5.812;2023-12-28T06:03:49;100909.44;;;11.38;69.25
59104;BME280;51449;51.676;5.812;2023-12-28T06:06:11;100905.88;;;11.37;69.11
59104;BME280;51449;51.676;5.812;2023-12-28T06:08:33;100904.50;;;11.43;69.33
59104;BME280;51449;51.676;5.812;2023-12-28T06:10:55;100886.34;;;11.42;68.87
59104;BME280;51449;51.676;5.812;2023-12-28T06:13:17;100907.72;;;11.45;68.60
59104;BME280;51449;51.676;5.812;2023-12-28T06:15:39;100910.28;;;11.50;68.63
59104;BME280;51449;51.676;5.812;2023-12-28T06:18:01;100911.56;;;11.53;68.55
59104;BME280;51449;51.676;5.812;2023-12-28T06:20:25;100904.22;;;11.57;68.44
59104;BME280;51449;51.676;5.812;2023-12-28T06:22:46;100901.00;;;11.55;68.43
59104;BME280;51449;51.676;5.812;2023-12-28T06:25:11;100925.03;;;11.54;68.65
59104;BME280;51449;51.676;5.812;2023-12-28T06:27:34;100927.09;;;11.57;68.77
59104;BME280;51449;51.676;5.812;2023-12-28T06:29:56;100923.22;;;11.59;68.71
59104;BME280;51449;51.676;5.812;2023-12-28T06:32:18;100943.53;;;11.54;68.95
59104;BME280;51449;51.676;5.812;2023-12-28T06:34:39;100941.69;;;11.58;68.91
59104;BME280;51449;51.676;5.812;2023-12-28T06:37:01;100937.47;;;11.61;68.54
59104;BME280;51449;51.676;5.812;2023-12-28T06:39:23;100937.28;;;11.66;68.72
59104;BME280;51449;51.676;5.812;2023-12-28T06:41:48;100942.91;;;11.69;68.98
59104;BME280;51449;51.676;5.812;2023-12-28T06:44:11;100947.16;;;11.67;68.63
59104;BME280;51449;51.676;5.812;2023-12-28T06:46:35;100934.53;;;11.66;68.83
59104;BME280;51449;51.676;5.812;2023-12-28T06:48:57;100936.81;;;11.64;68.85
59104;BME280;51449;51.676;5.812;2023-12-28T06:51:21;100933.69;;;11.65;68.91
59104;BME280;51449;51.676;5.812;2023-12-28T06:53:44;100937.72;;;11.68;68.66
59104;BME280;51449;51.676;5.812;2023-12-28T06:56:06;100940.03;;;11.66;68.77
59104;BME280;51449;51.676;5.812;2023-12-28T06:58:29;100937.59;;;11.64;68.44
59104;BME280;51449;51.676;5.812;2023-12-28T07:00:50;100936.81;;;11.64;68.50
59104;BME280;51449;51.676;5.812;2023-12-28T07:03:13;100934.59;;;11.57;68.49
59104;BME280;51449;51.676;5.812;2023-12-28T07:05:35;100938.03;;;11.54;68.70
59104;BME280;51449;51.676;5.812;2023-12-28T07:07:57;100946.16;;;11.50;68.66
59104;BME280;51449;51.676;5.812;2023-12-28T07:10:19;100948.00;;;11.46;68.81
59104;BME280;51449;51.676;5.812;2023-12-28T07:12:40;100939.72;;;11.46;68.52
59104;BME280;51449;51.676;5.812;2023-12-28T07:15:02;100932.44;;;11.42;68.76
59104;BME280;51449;51.676;5.812;2023-12-28T07:17:25;100954.16;;;11.43;68.77
59104;BME280;51449;51.676;5.812;2023-12-28T07:19:46;100957.41;;;11.45;68.79
59104;BME280;51449;51.676;5.812;2023-12-28T07:22:08;100970.50;;;11.48;68.87
59104;BME280;51449;51.676;5.812;2023-12-28T07:24:30;100969.72;;;11.48;68.39
59104;BME280;51449;51.676;5.812;2023-12-28T07:26:52;100956.72;;;11.48;68.87
59104;BME280;51449;51.676;5.812;2023-12-28T07:29:14;100962.22;;;11.48;68.72
59104;BME280;51449;51.676;5.812;2023-12-28T07:31:35;100974.91;;;11.49;69.03
59104;BME280;51449;51.676;5.812;2023-12-28T07:33:58;100974.91;;;11.49;68.58
59104;BME280;51449;51.676;5.812;2023-12-28T07:36:20;100956.38;;;11.50;68.62
59104;BME280;51449;51.676;5.812;2023-12-28T07:38:43;100962.72;;;11.50;68.95
59104;BME280;51449;51.676;5.812;2023-12-28T07:41:05;100983.03;;;11.46;68.45
59104;BME280;51449;51.676;5.812;2023-12-28T07:43:27;100977.88;;;11.44;68.57
59104;BME280;51449;51.676;5.812;2023-12-28T07:45:49;100989.91;;;11.40;68.92
59104;BME280;51449;51.676;5.812;2023-12-28T07:48:11;100985.06;;;11.37;68.72
59104;BME280;51449;51.676;5.812;2023-12-28T07:50:34;100988.94;;;11.35;69.00
59104;BME280;51449;51.676;5.812;2023-12-28T07:52:56;101002.25;;;11.33;68.96
59104;BME280;51449;51.676;5.812;2023-12-28T07:55:18;100997.41;;;11.30;69.24
59104;BME280;51449;51.676;5.812;2023-12-28T07:57:41;100994.00;;;11.33;69.57
59104;BME280;51449;51.676;5.812;2023-12-28T08:00:05;101005.84;;;11.34;69.69
59104;BME280;51449;51.676;5.812;2023-12-28T08:02:27;101006.66;;;11.34;69.47
59104;BME280;51449;51.676;5.812;2023-12-28T08:04:49;101017.81;;;11.38;69.86
59104;BME280;51449;51.676;5.812;2023-12-28T08:07:11;101017.81;;;11.38;70.05
59104;BME280;51449;51.676;5.812;2023-12-28T08:09:33;101015.22;;;11.42;69.67
59104;BME280;51449;51.676;5.812;2023-12-28T08:11:56;101014.41;;;11.41;69.98
59104;BME280;51449;51.676;5.812;2023-12-28T08:14:18;101029.13;;;11.45;70.00
59104;BME280;51449;51.676;5.812;2023-12-28T08:16:40;101033.97;;;11.48;70.06
59104;BME280;51449;51.676;5.812;2023-12-28T08:19:02;101036.09;;;11.51;69.72
59104;BME280;51449;51.676;5.812;2023-12-28T08:21:24;101035.09;;;11.56;69.58
59104;BME280;51449;51.676;5.812;2023-12-28T08:23:46;101031.97;;;11.57;69.91
59104;BME280;51449;51.676;5.812;2023-12-28T08:26:08;101043.00;;;11.57;70.05
59104;BME280;51449;51.676;5.812;2023-12-28T08:28:31;101042.31;;;11.61;69.87
59104;BME280;51449;51.676;5.812;2023-12-28T08:30:52;101035.69;;;11.62;69.49
59104;BME280;51449;51.676;5.812;2023-12-28T08:33:14;101023.97;;;11.65;69.50
59104;BME280;51449;51.676;5.812;2023-12-28T08:35:37;101010.84;;;11.62;69.19
59104;BME280;51449;51.676;5.812;2023-12-28T08:37:59;101003.03;;;11.64;69.30
59104;BME280;51449;51.676;5.812;2023-12-28T08:40:21;101013.41;;;11.67;69.00
59104;BME280;51449;51.676;5.812;2023-12-28T08:42:43;101018.91;;;11.67;69.52
59104;BME280;51449;51.676;5.812;2023-12-28T08:45:05;101014.56;;;11.66;69.27
59104;BME280;51449;51.676;5.812;2023-12-28T08:47:27;101020.88;;;11.66;69.73
59104;BME280;51449;51.676;5.812;2023-12-28T08:49:51;101029.97;;;11.67;69.50
59104;BME280;51449;51.676;5.812;2023-12-28T08:52:13;101041.13;;;11.70;69.66
59104;BME280;51449;51.676;5.812;2023-12-28T08:54:35;101037.56;;;11.70;69.21
59104;BME280;51449;51.676;5.812;2023-12-28T08:56:57;101049.41;;;11.70;69.11
59104;BME280;51449;51.676;5.812;2023-12-28T08:59:20;101057.34;;;11.72;69.17
59104;BME280;51449;51.676;5.812;2023-12-28T09:01:43;101055.88;;;11.74;68.77
59104;BME280;51449;51.676;5.812;2023-12-28T09:04:05;101060.91;;;11.72;69.03
59104;BME280;51449;51.676;5.812;2023-12-28T09:06:27;101069.34;;;11.76;69.04
59104;BME280;51449;51.676;5.812;2023-12-28T09:08:50;101067.06;;;11.78;69.06
59104;BME280;51449;51.676;5.812;2023-12-28T09:11:14;101077.44;;;11.81;68.75
59104;BME280;51449;51.676;5.812;2023-12-28T09:13:36;101078.56;;;11.80;68.69
59104;BME280;51449;51.676;5.812;2023-12-28T09:15:58;101077.28;;;11.77;69.01
59104;BME280;51449;51.676;5.812;2023-12-28T09:18:21;101082.81;;;11.77;68.64
59104;BME280;51449;51.676;5.812;2023-12-28T09:20:43;101083.97;;;11.76;68.83
59104;BME280;51449;51.676;5.812;2023-12-28T09:23:05;101079.72;;;11.79;69.17
59104;BME280;51449;51.676;5.812;2023-12-28T09:25:27;101087.88;;;11.75;69.26
59104;BME280;51449;51.676;5.812;2023-12-28T09:27:49;101092.56;;;11.75;68.63
59104;BME280;51449;51.676;5.812;2023-12-28T09:30:11;101083.97;;;11.76;68.81
59104;BME280;51449;51.676;5.812;2023-12-28T09:32:33;101098.09;;;11.75;68.70
59104;BME280;51449;51.676;5.812;2023-12-28T09:34:55;101091.91;;;11.78;68.84
59104;BME280;51449;51.676;5.812;2023-12-28T09:37:17;101101.13;;;11.82;68.99
59104;BME280;51449;51.676;5.812;2023-12-28T09:39:38;101093.84;;;11.77;68.38
59104;BME280;51449;51.676;5.812;2023-12-28T09:42:05;101080.31;;;11.85;68.55
59104;BME280;51449;51.676;5.812;2023-12-28T09:44:32;101096.06;;;11.84;68.86
59104;BME280;51449;51.676;5.812;2023-12-28T09:46:54;101086.19;;;11.83;68.16
59104;BME280;51449;51.676;5.812;2023-12-28T09:49:17;101089.09;;;11.87;68.62
59104;BME280;51449;51.676;5.812;2023-12-28T09:51:39;101090.06;;;11.91;68.52
59104;BME280;51449;51.676;5.812;2023-12-28T09:54:03;101080.97;;;11.90;67.60
59104;BME280;51449;51.676;5.812;2023-12-28T09:56:25;101106.28;;;11.92;67.95
59104;BME280;51449;51.676;5.812;2023-12-28T09:58:51;101095.06;;;11.97;67.58
59104;BME280;51449;51.676;5.812;2023-12-28T10:01:14;101095.19;;;12.01;67.67
59104;BME280;51449;51.676;5.812;2023-12-28T10:03:37;101094.00;;;12.02;67.46
59104;BME280;51449;51.676;5.812;2023-12-28T10:05:59;101100.00;;;12.04;67.31
59104;BME280;51449;51.676;5.812;2023-12-28T10:08:21;101101.28;;;12.07;67.36
59104;BME280;51449;51.676;5.812;2023-12-28T10:10:43;101105.34;;;12.09;67.14
59104;BME280;51449;51.676;5.812;2023-12-28T10:13:13;101111.69;;;12.10;66.65
59104;BME280;51449;51.676;5.812;2023-12-28T10:15:37;101113.63;;;12.09;66.83
59104;BME280;51449;51.676;5.812;2023-12-28T10:18:02;101112.81;;;12.09;67.12
59104;BME280;51449;51.676;5.812;2023-12-28T10:20:27;101119.50;;;12.08;67.07
59104;BME280;51449;51.676;5.812;2023-12-28T10:22:51;101103.72;;;12.08;66.85
59104;BME280;51449;51.676;5.812;2023-12-28T10:25:12;101111.06;;;12.04;66.85
59104;BME280;51449;51.676;5.812;2023-12-28T10:27:38;101109.13;;;12.05;66.64
59104;BME280;51449;51.676;5.812;2023-12-28T10:30:04;101109.25;;;12.08;66.75
59104;BME280;51449;51.676;5.812;2023-12-28T10:32:27;101115.78;;;12.04;66.45
59104;BME280;51449;51.676;5.812;2023-12-28T10:34:50;101109.56;;;12.07;66.26
59104;BME280;51449;51.676;5.812;2023-12-28T10:37:14;101094.63;;;12.08;66.92
59104;BME280;51449;51.676;5.812;2023-12-28T10:39:43;101101.44;;;12.10;67.03
59104;BME280;51449;51.676;5.812;2023-12-28T10:42:09;101102.25;;;12.11;66.89
59104;BME280;51449;51.676;5.812;2023-12-28T10:44:37;101093.75;;;12.16;67.48
59104;BME280;51449;51.676;5.812;2023-12-28T10:47:07;101098.16;;;12.17;67.53
59104;BME280;51449;51.676;5.812;2023-12-28T10:49:39;101091.94;;;12.20;66.92
59104;BME280;51449;51.676;5.812;2023-12-28T10:52:05;101100.69;;;12.22;67.21
59104;BME280;51449;51.676;5.812;2023-12-28T10:54:41;101106.03;;;12.27;67.00
59104;BME280;51449;51.676;5.812;2023-12-28T10:57:13;101114.78;;;12.29;67.13
59104;BME280;51449;51.676;5.812;2023-12-28T11:02:25;101104.06;;;12.28;67.26
59104;BME280;51449;51.676;5.812;2023-12-28T11:04:53;101091.19;;;12.32;67.35
59104;BME280;51449;51.676;5.812;2023-12-28T11:07:20;101086.94;;;12.34;67.59
59104;BME280;51449;51.676;5.812;2023-12-28T11:09:43;101084.97;;;12.35;67.38
59104;BME280;51449;51.676;5.812;2023-12-28T11:12:07;101081.53;;;12.38;67.62
59104;BME280;51449;51.676;5.812;2023-12-28T11:14:30;101076.00;;;12.38;67.17
59104;BME280;51449;51.676;5.812;2023-12-28T11:16:55;101075.19;;;12.37;67.61
59104;BME280;51449;51.676;5.812;2023-12-28T11:19:23;101071.63;;;12.37;67.62
59104;BME280;51449;51.676;5.812;2023-12-28T11:21:46;101071.16;;;12.35;67.10
59104;BME280;51449;51.676;5.812;2023-12-28T11:24:09;101068.50;;;12.38;66.90
59104;BME280;51449;51.676;5.812;2023-12-28T11:26:31;101054.69;;;12.38;66.67
59104;BME280;51449;51.676;5.812;2023-12-28T11:29:03;101050.13;;;12.42;66.77
59104;BME280;51449;51.676;5.812;2023-12-28T11:31:25;101062.31;;;12.41;66.32
59104;BME280;51449;51.676;5.812;2023-12-28T11:33:51;101062.31;;;12.41;66.40
59104;BME280;51449;51.676;5.812;2023-12-28T11:36:34;101063.94;;;12.42;66.14
59104;BME280;51449;51.676;5.812;2023-12-28T11:39:03;101056.81;;;12.41;66.11
59104;BME280;51449;51.676;5.812;2023-12-28T11:41:26;101038.94;;;12.39;66.19
59104;BME280;51449;51.676;5.812;2023-12-28T11:43:54;101039.75;;;12.39;66.00
59104;BME280;51449;51.676;5.812;2023-12-28T11:46:17;101027.06;;;12.38;65.97
59104;BME280;51449;51.676;5.812;2023-12-28T11:48:38;101053.56;;;12.39;66.05
59104;BME280;51449;51.676;5.812;2023-12-28T11:51:00;101028.22;;;12.37;65.88
59104;BME280;51449;51.676;5.812;2023-12-28T11:53:23;101034.56;;;12.38;65.77
59104;BME280;51449;51.676;5.812;2023-12-28T11:55:45;101032.59;;;12.38;65.82
59104;BME280;51449;51.676;5.812;2023-12-28T11:58:07;101040.56;;;12.40;65.67
59104;BME280;51449;51.676;5.812;2023-12-28T12:00:29;101040.22;;;12.41;65.88
59104;BME280;51449;51.676;5.812;2023-12-28T12:02:51;101026.41;;;12.41;65.79
59104;BME280;51449;51.676;5.812;2023-12-28T12:05:14;101034.22;;;12.39;65.28
59104;BME280;51449;51.676;5.812;2023-12-28T12:07:36;101010.38;;;12.35;65.15
59104;BME280;51449;51.676;5.812;2023-12-28T12:09:58;101027.75;;;12.35;65.20
59104;BME280;51449;51.676;5.812;2023-12-28T12:12:21;101020.28;;;12.36;65.32
59104;BME280;51449;51.676;5.812;2023-12-28T12:14:43;101005.66;;;12.35;65.55
59104;BME280;51449;51.676;5.812;2023-12-28T12:17:05;101011.19;;;12.35;65.36
59104;BME280;51449;51.676;5.812;2023-12-28T12:19:28;101015.91;;;12.35;65.22
59104;BME280;51449;51.676;5.812;2023-12-28T12:21:54;101013.47;;;12.33;65.58
59104;BME280;51449;51.676;5.812;2023-12-28T12:24:18;101020.63;;;12.34;65.88
59104;BME280;51449;51.676;5.812;2023-12-28T12:26:40;101015.91;;;12.35;65.95
59104;BME280;51449;51.676;5.812;2023-12-28T12:29:02;101023.19;;;12.39;65.83
59104;BME280;51449;51.676;5.812;2023-12-28T12:31:25;101013.25;;;12.38;65.65
59104;BME280;51449;51.676;5.812;2023-12-28T12:33:48;101011.19;;;12.35;65.69